Time;durP1;ratioP1;P1;durP2;ratioP2;P2;SDS_P1;SDS_P2;PMS_P1;PMS_P2;Temp;Humidity;BMP_temperature;BMP_pressure;BME280_temperature;BME280_humidity;BME280_pressure;Samples;Min_cycle;Max_cycle;Signal;HPM_P1;HPM_P2
2023/06/16 00:00:43;;;;;;;4.00;3.70;;;19.50;96.30;;;;;;5111385;27;20260;-51
2023/06/16 00:03:15;;;;;;;5.70;3.67;;;19.40;96.50;;;;;;5104989;28;20212;-51
2023/06/16 00:05:45;;;;;;;3.97;3.87;;;19.20;96.90;;;;;;5112207;27;20211;-51
2023/06/16 00:08:14;;;;;;;4.07;3.87;;;19.30;96.80;;;;;;5119739;27;20245;-52
2023/06/16 00:10:43;;;;;;;4.57;4.17;;;19.20;97.20;;;;;;5104641;28;20220;-51
2023/06/16 00:13:10;;;;;;;4.17;3.97;;;19.20;97.20;;;;;;5116897;27;20249;-51
2023/06/16 00:15:37;;;;;;;4.60;4.40;;;19.20;97.50;;;;;;5112389;27;20670;-51
2023/06/16 00:18:04;;;;;;;6.57;4.20;;;19.20;97.40;;;;;;5105622;28;20197;-51
2023/06/16 00:20:32;;;;;;;4.60;4.30;;;19.00;97.70;;;;;;5104609;28;20247;-51
2023/06/16 00:22:59;;;;;;;4.13;3.80;;;19.00;97.90;;;;;;5111322;27;20199;-52
2023/06/16 00:25:26;;;;;;;4.47;4.17;;;19.00;97.90;;;;;;5106809;28;20247;-52
2023/06/16 00:27:55;;;;;;;4.10;3.90;;;18.90;98.30;;;;;;5099934;28;20191;-51
2023/06/16 00:30:22;;;;;;;4.17;3.97;;;18.80;98.90;;;;;;5108497;28;20251;-51
2023/06/16 00:32:48;;;;;;;4.03;3.73;;;18.70;99.30;;;;;;5104243;27;20661;-52
2023/06/16 00:35:15;;;;;;;3.83;3.63;;;18.60;99.50;;;;;;5104229;28;20245;-51
2023/06/16 00:37:42;;;;;;;4.27;4.07;;;18.60;99.70;;;;;;5120216;27;20252;-51
2023/06/16 00:40:10;;;;;;;4.47;4.37;;;18.70;99.90;;;;;;5112952;27;20742;-52
2023/06/16 00:42:37;;;;;;;5.47;5.17;;;18.50;99.80;;;;;;5098660;28;20680;-51
2023/06/16 00:45:07;;;;;;;4.20;4.00;;;18.50;99.90;;;;;;5103824;28;20223;-51
2023/06/16 00:47:34;;;;;;;4.87;4.67;;;18.50;99.90;;;;;;5112563;28;20665;-51
2023/06/16 00:50:01;;;;;;;4.03;3.93;;;18.30;99.90;;;;;;5110747;28;20649;-52
2023/06/16 00:52:35;;;;;;;4.97;4.67;;;18.20;99.90;;;;;;5103152;27;20200;-51
2023/06/16 00:55:02;;;;;;;4.87;4.27;;;18.20;99.90;;;;;;5108259;28;20762;-51
2023/06/16 00:57:30;;;;;;;4.87;4.67;;;18.20;99.90;;;;;;5106835;28;20359;-51
2023/06/16 00:59:57;;;;;;;4.00;3.80;;;18.10;99.90;;;;;;5112542;28;20227;-51
2023/06/16 01:02:26;;;;;;;3.93;3.73;;;18.10;99.90;;;;;;5111661;28;20576;-51
2023/06/16 01:04:54;;;;;;;4.43;4.23;;;18.10;99.90;;;;;;5102199;28;20224;-51
2023/06/16 01:07:30;;;;;;;4.43;4.23;;;18.10;99.90;;;;;;5112681;27;20196;-51
2023/06/16 01:10:05;;;;;;;5.30;5.07;;;18.10;99.90;;;;;;5114526;27;20726;-51
2023/06/16 01:12:40;;;;;;;5.00;4.70;;;18.20;99.90;;;;;;5096575;28;20204;-51
2023/06/16 01:15:10;;;;;;;5.73;5.33;;;18.30;99.90;;;;;;5104220;28;20223;-51
2023/06/16 01:17:44;;;;;;;5.07;4.60;;;18.20;99.90;;;;;;5111793;28;20203;-51
2023/06/16 01:20:13;;;;;;;4.60;4.40;;;18.20;99.90;;;;;;5107085;28;20207;-51
2023/06/16 01:23:02;;;;;;;4.37;3.97;;;18.30;99.90;;;;;;5099830;28;20208;-51
2023/06/16 01:25:32;;;;;;;5.17;4.77;;;18.30;99.90;;;;;;5111075;28;20204;-51
2023/06/16 01:28:03;;;;;;;4.33;4.03;;;18.30;99.90;;;;;;5110703;28;20763;-51
2023/06/16 01:30:33;;;;;;;4.67;4.33;;;18.20;99.90;;;;;;5106850;28;20249;-51
2023/06/16 01:33:02;;;;;;;4.53;4.20;;;18.30;99.90;;;;;;5108532;28;20200;-51
2023/06/16 01:35:31;;;;;;;4.50;4.30;;;18.40;99.90;;;;;;5104437;28;20200;-51
2023/06/16 01:37:59;;;;;;;5.10;4.80;;;18.20;99.90;;;;;;5106818;28;20250;-52
2023/06/16 01:40:27;;;;;;;5.43;5.17;;;18.10;99.90;;;;;;5113801;28;20192;-52
2023/06/16 01:42:57;;;;;;;4.40;4.20;;;18.00;99.90;;;;;;5101636;28;20273;-51
2023/06/16 01:45:25;;;;;;;4.73;4.43;;;18.00;99.90;;;;;;5097626;28;20577;-51
2023/06/16 01:47:52;;;;;;;4.50;4.30;;;18.00;99.90;;;;;;5094504;28;20195;-52
2023/06/16 01:50:20;;;;;;;4.47;4.10;;;18.00;99.90;;;;;;5099613;28;20289;-51
2023/06/16 01:52:46;;;;;;;4.93;4.63;;;18.00;99.90;;;;;;5113380;28;20577;-51
2023/06/16 01:55:13;;;;;;;4.93;4.50;;;18.10;99.90;;;;;;5111372;28;20203;-52
2023/06/16 01:57:41;;;;;;;5.03;4.70;;;18.00;99.90;;;;;;5111793;28;20192;-51
2023/06/16 02:00:15;;;;;;;4.10;3.90;;;18.00;99.90;;;;;;5108426;28;20200;-51
2023/06/16 02:02:52;;;;;;;5.30;5.00;;;18.00;99.90;;;;;;5107933;28;20249;-54
2023/06/16 02:05:23;;;;;;;4.53;4.33;;;17.90;99.90;;;;;;5111981;28;20204;-51
2023/06/16 02:07:53;;;;;;;4.73;4.47;;;17.90;99.90;;;;;;5111106;28;20619;-51
2023/06/16 02:10:22;;;;;;;13.13;4.30;;;17.70;99.90;;;;;;5112875;28;20299;-51
2023/06/16 02:12:50;;;;;;;4.90;4.60;;;17.70;99.90;;;;;;5109329;28;20200;-52
2023/06/16 02:15:19;;;;;;;5.43;4.93;;;17.80;99.90;;;;;;5103124;28;20273;-51
2023/06/16 02:17:47;;;;;;;5.17;4.53;;;17.80;99.90;;;;;;5111877;28;20208;-51
2023/06/16 02:20:14;;;;;;;4.30;4.10;;;17.60;99.90;;;;;;5111499;28;20204;-52
2023/06/16 02:22:41;;;;;;;4.43;4.33;;;17.50;99.90;;;;;;5113826;28;20200;-51
2023/06/16 02:25:09;;;;;;;4.43;4.30;;;17.50;99.90;;;;;;5101580;28;20284;-51
2023/06/16 02:27:36;;;;;;;4.87;4.47;;;17.40;99.90;;;;;;5106893;28;20196;-51
2023/06/16 02:30:03;;;;;;;5.80;5.40;;;17.40;99.90;;;;;;5105912;28;20200;-51
2023/06/16 02:32:31;;;;;;;6.33;4.60;;;17.40;99.90;;;;;;5111127;28;20274;-52
2023/06/16 02:34:58;;;;;;;4.70;4.50;;;17.30;99.90;;;;;;5111491;28;20251;-51
2023/06/16 02:37:27;;;;;;;4.80;4.40;;;17.20;99.90;;;;;;5113365;27;20200;-52
2023/06/16 02:39:54;;;;;;;4.20;4.00;;;17.20;99.90;;;;;;5106351;28;20199;-52
2023/06/16 02:42:21;;;;;;;4.67;4.47;;;17.20;99.90;;;;;;5121729;27;20225;-51
2023/06/16 02:44:48;;;;;;;4.33;4.07;;;17.20;99.90;;;;;;5111739;28;20227;-51
2023/06/16 02:47:15;;;;;;;4.77;4.50;;;17.10;99.90;;;;;;5111357;28;20228;-52
2023/06/16 02:49:43;;;;;;;4.33;4.23;;;17.10;99.90;;;;;;5105431;28;20293;-52
2023/06/16 02:52:11;;;;;;;4.80;4.00;;;17.10;99.90;;;;;;5105776;28;20311;-52
2023/06/16 02:54:39;;;;;;;4.33;4.13;;;17.00;99.90;;;;;;5114977;27;20302;-51
2023/06/16 02:57:07;;;;;;;4.20;3.93;;;17.00;99.90;;;;;;5107314;28;20200;-52
2023/06/16 02:59:34;;;;;;;5.13;4.67;;;17.00;99.90;;;;;;5114152;27;20203;-51
2023/06/16 03:02:01;;;;;;;5.20;4.90;;;17.10;99.90;;;;;;5111316;28;20265;-52
2023/06/16 03:04:28;;;;;;;4.73;4.43;;;17.10;99.90;;;;;;5105567;28;20223;-51
2023/06/16 03:06:58;;;;;;;5.30;5.00;;;17.10;99.90;;;;;;5095689;28;20674;-52
2023/06/16 03:09:26;;;;;;;4.23;4.03;;;17.10;99.90;;;;;;5117552;27;20279;-51
2023/06/16 03:11:53;;;;;;;5.10;4.80;;;17.10;99.90;;;;;;5104995;27;20218;-52
2023/06/16 03:14:21;;;;;;;4.20;4.10;;;17.10;99.90;;;;;;5108551;28;20266;-51
2023/06/16 03:16:49;;;;;;;4.90;4.70;;;17.10;99.90;;;;;;5106513;27;20577;-51
2023/06/16 03:19:16;;;;;;;4.73;4.50;;;17.10;99.90;;;;;;5112898;28;20206;-51
2023/06/16 03:21:44;;;;;;;4.50;4.23;;;17.10;99.90;;;;;;5105499;28;20560;-51
2023/06/16 03:24:16;;;;;;;4.73;4.20;;;17.10;99.90;;;;;;5118668;27;20227;-51
2023/06/16 03:26:44;;;;;;;5.03;4.73;;;17.20;99.90;;;;;;5103737;28;20207;-51
2023/06/16 03:29:12;;;;;;;4.97;4.77;;;17.20;99.90;;;;;;5101401;28;20201;-51
2023/06/16 03:31:39;;;;;;;4.40;4.10;;;17.20;99.90;;;;;;5107214;27;20964;-51
2023/06/16 03:34:06;;;;;;;6.30;5.80;;;17.20;99.90;;;;;;5101952;27;20248;-52
2023/06/16 03:36:35;;;;;;;5.23;4.83;;;17.10;99.90;;;;;;5113820;28;20200;-52
2023/06/16 03:39:03;;;;;;;5.83;5.33;;;17.00;99.90;;;;;;5104398;28;20250;-51
2023/06/16 03:41:31;;;;;;;5.43;5.10;;;16.90;99.90;;;;;;5102069;27;20669;-51
2023/06/16 03:43:58;;;;;;;5.10;4.80;;;16.80;99.90;;;;;;5104705;28;20219;-51
2023/06/16 03:46:26;;;;;;;5.00;4.73;;;16.70;99.90;;;;;;5113311;28;20249;-51
2023/06/16 03:48:53;;;;;;;5.40;5.00;;;16.60;99.90;;;;;;5112259;27;20655;-51
2023/06/16 03:51:20;;;;;;;9.60;5.43;;;16.40;99.90;;;;;;5112280;28;20215;-51
2023/06/16 03:53:46;;;;;;;5.20;4.73;;;16.40;99.90;;;;;;5095705;28;20216;-54
2023/06/16 03:56:13;;;;;;;5.00;4.80;;;16.40;99.90;;;;;;5098966;27;20729;-54
2023/06/16 03:58:42;;;;;;;5.73;5.37;;;16.40;99.90;;;;;;5117568;27;20204;-51
2023/06/16 04:01:09;;;;;;;5.10;4.90;;;16.40;99.90;;;;;;5093108;28;20254;-51
2023/06/16 04:03:36;;;;;;;5.70;5.20;;;16.50;99.90;;;;;;5100225;27;20246;-51
2023/06/16 04:06:03;;;;;;;5.30;5.00;;;16.50;99.90;;;;;;5104304;28;20653;-51
2023/06/16 04:08:30;;;;;;;5.70;5.37;;;16.70;99.90;;;;;;5113104;28;20247;-52
2023/06/16 04:10:58;;;;;;;5.97;5.77;;;16.70;99.90;;;;;;5111540;28;20649;-50
2023/06/16 04:13:25;;;;;;;6.80;6.10;;;16.80;99.90;;;;;;5102514;28;20639;-51
2023/06/16 04:15:53;;;;;;;6.37;5.90;;;16.80;99.90;;;;;;5092856;28;20250;-52
2023/06/16 04:18:20;;;;;;;5.83;5.43;;;16.90;99.90;;;;;;5116538;27;20249;-51
2023/06/16 04:20:49;;;;;;;5.37;4.97;;;17.00;99.90;;;;;;5111203;28;20222;-51
2023/06/16 04:23:16;;;;;;;5.07;4.77;;;17.10;99.90;;;;;;5114236;27;20280;-51
2023/06/16 04:25:43;;;;;;;5.17;4.87;;;17.20;99.90;;;;;;5111138;27;20200;-50
2023/06/16 04:28:13;;;;;;;4.87;4.60;;;17.20;99.90;;;;;;5121072;27;20195;-51
2023/06/16 04:30:41;;;;;;;5.67;4.90;;;17.20;99.90;;;;;;5107701;27;20249;-51
2023/06/16 04:33:10;;;;;;;6.53;5.90;;;17.40;99.90;;;;;;5107641;27;20603;-51
2023/06/16 04:35:38;;;;;;;5.67;5.27;;;17.40;99.90;;;;;;5101250;28;20201;-52
2023/06/16 04:38:07;;;;;;;6.00;5.50;;;17.40;99.90;;;;;;5111562;27;20235;-51
2023/06/16 04:40:34;;;;;;;5.57;5.22;;;17.50;99.90;;;;;;5110050;28;20447;-51
2023/06/16 04:43:01;;;;;;;5.67;5.20;;;17.60;99.90;;;;;;5114980;27;20218;-52
2023/06/16 04:45:28;;;;;;;5.30;5.07;;;17.60;99.90;;;;;;5113584;27;20205;-52
2023/06/16 04:47:55;;;;;;;5.83;5.57;;;17.60;99.90;;;;;;5109156;27;20274;-52
2023/06/16 04:50:23;;;;;;;6.13;5.73;;;17.60;99.90;;;;;;5092034;28;20258;-52
2023/06/16 04:52:51;;;;;;;5.50;5.30;;;17.60;99.90;;;;;;5107596;28;20273;-52
2023/06/16 04:55:18;;;;;;;7.23;6.73;;;17.60;99.90;;;;;;5124568;22;20709;-58
2023/06/16 04:57:46;;;;;;;6.77;6.37;;;17.60;99.90;;;;;;5109654;28;20219;-58
2023/06/16 05:00:13;;;;;;;6.73;6.30;;;17.60;99.90;;;;;;5118768;27;20291;-58
2023/06/16 05:02:41;;;;;;;6.83;6.40;;;17.80;99.90;;;;;;5104692;28;20265;-58
2023/06/16 05:05:09;;;;;;;7.87;7.33;;;17.90;99.90;;;;;;5099558;28;20216;-58
2023/06/16 05:07:37;;;;;;;8.87;6.40;;;18.10;99.90;;;;;;5110978;28;20196;-58
2023/06/16 05:10:05;;;;;;;6.63;6.23;;;18.30;99.90;;;;;;5091660;28;20202;-58
2023/06/16 05:12:32;;;;;;;6.57;6.17;;;18.40;99.90;;;;;;5095131;28;20276;-58
2023/06/16 05:15:00;;;;;;;7.53;7.03;;;18.60;99.90;;;;;;5102015;28;20258;-58
2023/06/16 05:17:27;;;;;;;7.50;6.97;;;19.00;99.90;;;;;;5105206;28;20204;-58
2023/06/16 05:19:54;;;;;;;8.77;7.90;;;19.50;99.90;;;;;;5101736;28;20319;-58
2023/06/16 05:22:23;;;;;;;7.87;7.27;;;19.80;99.90;;;;;;5108919;28;20658;-58
2023/06/16 05:24:56;;;;;;;7.40;6.77;;;19.80;99.90;;;;;;5111403;28;20224;-58
2023/06/16 05:27:24;;;;;;;7.30;6.80;;;19.90;99.90;;;;;;5105355;28;20661;-58
2023/06/16 05:29:51;;;;;;;7.03;6.43;;;20.00;99.90;;;;;;5100224;28;20569;-57
2023/06/16 05:32:21;;;;;;;7.70;7.20;;;20.50;99.90;;;;;;5110453;28;20215;-58
2023/06/16 05:34:50;;;;;;;7.80;6.27;;;20.90;99.90;;;;;;5101971;28;20235;-58
2023/06/16 05:37:18;;;;;;;7.13;6.43;;;20.90;99.90;;;;;;5111002;28;20203;-57
2023/06/16 05:39:45;;;;;;;7.33;6.73;;;20.90;99.90;;;;;;5111289;28;20210;-58
2023/06/16 05:42:15;;;;;;;5.93;5.53;;;20.90;99.90;;;;;;5104908;28;20614;-58
2023/06/16 05:44:42;;;;;;;6.63;6.03;;;20.90;99.90;;;;;;5099153;28;20216;-58
2023/06/16 05:47:09;;;;;;;6.37;5.87;;;20.90;99.90;;;;;;5090854;28;20304;-58
2023/06/16 05:49:36;;;;;;;6.70;6.27;;;20.90;99.90;;;;;;5093698;28;20207;-58
2023/06/16 05:52:05;;;;;;;7.13;6.43;;;21.20;99.90;;;;;;5111114;28;20439;-58
2023/06/16 05:54:32;;;;;;;6.17;5.77;;;21.10;99.90;;;;;;5110918;28;20232;-58
2023/06/16 05:57:00;;;;;;;7.68;6.60;;;20.90;99.90;;;;;;5105471;28;20454;-58
2023/06/16 05:59:29;;;;;;;5.73;5.43;;;20.80;99.90;;;;;;5105079;28;20216;-57
2023/06/16 06:01:57;;;;;;;6.53;6.13;;;20.70;99.90;;;;;;5110988;28;20665;-58
2023/06/16 06:04:28;;;;;;;5.20;4.90;;;20.50;99.90;;;;;;5110788;28;20228;-61
2023/06/16 06:06:55;;;;;;;6.30;5.80;;;20.40;99.90;;;;;;5110689;28;20571;-63
2023/06/16 06:09:23;;;;;;;6.50;6.10;;;20.40;99.90;;;;;;5101956;28;20196;-63
2023/06/16 06:11:50;;;;;;;6.57;6.00;;;20.20;99.90;;;;;;5097811;28;20238;-63
2023/06/16 06:14:17;;;;;;;6.50;6.00;;;20.00;99.90;;;;;;5114611;28;20570;-62
2023/06/16 06:16:46;;;;;;;6.17;5.77;;;19.90;99.90;;;;;;5114742;28;20241;-61
2023/06/16 06:19:13;;;;;;;5.80;5.40;;;19.70;99.90;;;;;;5114669;28;20250;-65
2023/06/16 06:21:40;;;;;;;9.87;6.23;;;19.80;99.90;;;;;;5114269;28;20199;-63
2023/06/16 06:24:07;;;;;;;6.20;5.80;;;19.90;99.90;;;;;;5109592;28;20709;-64
2023/06/16 06:26:34;;;;;;;6.63;5.93;;;20.00;99.90;;;;;;5104362;28;20200;-64
2023/06/16 06:29:01;;;;;;;6.63;6.27;;;20.00;99.90;;;;;;5102395;28;20245;-57
2023/06/16 06:31:28;;;;;;;6.73;6.17;;;20.40;99.90;;;;;;5111485;28;20807;-57
2023/06/16 06:33:56;;;;;;;5.70;5.40;;;21.00;99.90;;;;;;5104761;28;20211;-64
2023/06/16 06:36:25;;;;;;;6.13;5.63;;;21.40;99.90;;;;;;5093913;28;20196;-64
2023/06/16 06:38:52;;;;;;;7.83;7.03;;;21.80;99.90;;;;;;5103899;28;20280;-65
2023/06/16 06:41:20;;;;;;;6.53;5.87;;;21.90;99.90;;;;;;5103914;28;20197;-65
2023/06/16 06:43:47;;;;;;;5.90;5.53;;;22.30;99.90;;;;;;5110514;28;20222;-65
2023/06/16 06:46:14;;;;;;;5.70;5.27;;;22.60;99.90;;;;;;5108262;28;20222;-65
2023/06/16 06:48:41;;;;;;;6.23;5.73;;;23.20;99.90;;;;;;5102840;28;20268;-57
2023/06/16 06:51:09;;;;;;;4.73;4.53;;;23.20;99.90;;;;;;5104263;28;20211;-57
2023/06/16 06:53:36;;;;;;;5.00;4.73;;;23.30;99.90;;;;;;5107314;28;20242;-56
2023/06/16 06:56:03;;;;;;;4.77;4.47;;;23.30;99.90;;;;;;5109575;28;20192;-56
2023/06/16 06:58:31;;;;;;;8.73;5.10;;;23.40;99.90;;;;;;5106430;28;20221;-56
2023/06/16 07:00:58;;;;;;;4.97;4.57;;;23.50;99.90;;;;;;5113666;28;20282;-56
2023/06/16 07:03:26;;;;;;;5.83;5.33;;;23.40;99.90;;;;;;5100828;28;20710;-56
2023/06/16 07:05:53;;;;;;;5.33;5.03;;;23.10;99.90;;;;;;5104515;28;20216;-56
2023/06/16 07:08:21;;;;;;;5.63;5.23;;;22.60;99.90;;;;;;5098214;28;20192;-56
2023/06/16 07:10:48;;;;;;;4.43;4.13;;;23.00;99.90;;;;;;5095516;28;20205;-56
2023/06/16 07:13:16;;;;;;;4.17;3.97;;;24.10;99.90;;;;;;5101640;28;20205;-56
2023/06/16 07:15:43;;;;;;;5.20;4.90;;;24.90;99.90;;;;;;5102687;28;20247;-56
2023/06/16 07:18:10;;;;;;;6.80;4.33;;;26.20;99.90;;;;;;5104702;28;20615;-56
2023/06/16 07:20:36;;;;;;;5.43;4.93;;;27.00;99.20;;;;;;5097683;28;20196;-57
2023/06/16 07:23:03;;;;;;;4.73;4.40;;;27.50;99.00;;;;;;5103428;28;20188;-56
2023/06/16 07:25:36;;;;;;;6.63;4.93;;;27.50;97.10;;;;;;5096609;28;20216;-56
2023/06/16 07:28:03;;;;;;;5.03;4.83;;;28.00;96.90;;;;;;5100836;28;20230;-57
2023/06/16 07:30:30;;;;;;;4.60;4.17;;;27.80;96.40;;;;;;5113963;28;20249;-57
2023/06/16 07:32:58;;;;;;;5.23;4.83;;;27.40;95.80;;;;;;5111182;28;20222;-58
2023/06/16 07:35:25;;;;;;;6.07;5.60;;;27.80;94.90;;;;;;5110289;28;20220;-58
2023/06/16 07:37:52;;;;;;;5.68;4.93;;;27.90;94.90;;;;;;5108584;28;20649;-58
2023/06/16 07:40:19;;;;;;;4.97;4.40;;;27.50;95.40;;;;;;5107109;28;20207;-58
2023/06/16 07:42:47;;;;;;;4.70;4.35;;;27.70;96.40;;;;;;5110449;28;20730;-58
2023/06/16 07:45:17;;;;;;;5.60;5.10;;;28.30;94.80;;;;;;5104003;28;20289;-59
2023/06/16 07:47:45;;;;;;;5.47;4.97;;;28.50;93.40;;;;;;5100128;28;20307;-59
2023/06/16 07:50:13;;;;;;;5.00;4.80;;;28.60;93.70;;;;;;5093708;28;20204;-58
2023/06/16 07:52:41;;;;;;;5.28;4.78;;;29.00;94.00;;;;;;5103263;28;20212;-59
2023/06/16 07:55:09;;;;;;;4.05;3.88;;;28.20;93.40;;;;;;5096749;28;20223;-59
2023/06/16 07:57:38;;;;;;;4.63;4.40;;;27.80;93.90;;;;;;5104365;28;20259;-59
2023/06/16 08:00:11;;;;;;;5.00;4.68;;;27.80;94.70;;;;;;5102507;28;20696;-58
2023/06/16 08:02:39;;;;;;;3.63;3.33;;;27.70;93.10;;;;;;5107544;28;20199;-58
2023/06/16 08:05:07;;;;;;;4.00;3.72;;;27.90;93.30;;;;;;5101777;28;20309;-59
2023/06/16 08:07:34;;;;;;;4.13;3.95;;;28.20;92.90;;;;;;5101889;28;20279;-58
2023/06/16 08:10:01;;;;;;;4.30;4.10;;;28.70;93.30;;;;;;5109099;28;20246;-59
2023/06/16 08:12:28;;;;;;;4.18;3.95;;;29.40;93.30;;;;;;5092016;28;20220;-58
2023/06/16 08:14:55;;;;;;;4.35;3.97;;;29.50;91.50;;;;;;5092312;28;20766;-59
2023/06/16 08:17:25;;;;;;;4.20;4.00;;;29.50;91.30;;;;;;5092123;28;20670;-58
2023/06/16 08:19:53;;;;;;;3.53;3.33;;;28.70;90.60;;;;;;5100111;28;20256;-58
2023/06/16 08:22:23;;;;;;;4.22;4.13;;;27.40;94.60;;;;;;5101048;28;20199;-58
2023/06/16 08:24:50;;;;;;;5.45;3.78;;;27.60;92.90;;;;;;5100486;28;20213;-58
2023/06/16 08:27:20;;;;;;;3.65;3.45;;;28.50;90.90;;;;;;5092577;28;20200;-59
2023/06/16 08:29:47;;;;;;;4.95;3.70;;;28.80;91.10;;;;;;5092138;28;20205;-59
2023/06/16 08:32:14;;;;;;;4.13;3.92;;;28.70;92.30;;;;;;5091652;28;20196;-58
2023/06/16 08:34:42;;;;;;;3.83;3.63;;;28.70;91.80;;;;;;5095090;28;20224;-58
2023/06/16 08:37:09;;;;;;;3.80;3.60;;;29.20;91.60;;;;;;5099181;28;20224;-59
2023/06/16 08:39:36;;;;;;;5.82;4.03;;;29.80;90.00;;;;;;5099577;28;20257;-58
2023/06/16 08:42:04;;;;;;;4.47;4.28;;;30.10;89.40;;;;;;5112234;28;20195;-59
2023/06/16 08:44:33;;;;;;;4.65;4.25;;;29.60;92.80;;;;;;5112350;28;20591;-58
2023/06/16 08:47:02;;;;;;;3.65;3.38;;;29.70;91.40;;;;;;5112132;28;20614;-58
2023/06/16 08:49:30;;;;;;;4.90;4.50;;;30.30;90.80;;;;;;5111532;28;20211;-58
2023/06/16 08:52:01;;;;;;;6.03;4.18;;;30.30;87.60;;;;;;5103052;28;20231;-58
2023/06/16 08:54:31;;;;;;;4.07;3.80;;;30.80;84.30;;;;;;5111502;28;20321;-59
2023/06/16 08:57:02;;;;;;;5.15;4.13;;;31.50;83.30;;;;;;5112009;28;20256;-58
2023/06/16 08:59:32;;;;;;;3.97;3.88;;;32.10;81.70;;;;;;5111887;28;20204;-58
2023/06/16 09:02:01;;;;;;;5.32;5.05;;;32.20;82.40;;;;;;5107652;28;20245;-58
2023/06/16 09:04:32;;;;;;;3.80;3.67;;;32.30;78.10;;;;;;5099173;28;20232;-59
2023/06/16 09:07:01;;;;;;;4.63;4.43;;;32.20;81.10;;;;;;5100554;28;20283;-59
2023/06/16 09:09:27;;;;;;;4.68;4.47;;;32.30;82.00;;;;;;5098840;28;20228;-59
2023/06/16 09:12:05;;;;;;;4.53;4.32;;;32.50;88.30;;;;;;5107694;28;20199;-59
2023/06/16 09:14:33;;;;;;;4.38;4.25;;;32.30;79.60;;;;;;5105866;28;20223;-59
2023/06/16 09:17:01;;;;;;;4.72;4.28;;;31.80;90.60;;;;;;5102459;28;20234;-58
2023/06/16 09:19:28;;;;;;;5.40;5.00;;;32.10;79.80;;;;;;5103032;28;20230;-58
2023/06/16 09:21:56;;;;;;;5.35;4.85;;;32.40;80.20;;;;;;5101618;28;20586;-59
2023/06/16 09:24:28;;;;;;;4.35;4.15;;;31.90;82.90;;;;;;5105699;28;20208;-57
2023/06/16 09:26:59;;;;;;;4.78;4.53;;;30.80;84.10;;;;;;5097920;28;20189;-58
2023/06/16 09:29:26;;;;;;;5.68;4.90;;;31.00;84.80;;;;;;5111726;28;20554;-58
2023/06/16 09:31:54;;;;;;;5.18;4.90;;;31.50;88.10;;;;;;5096038;28;20738;-58
2023/06/16 09:34:21;;;;;;;5.15;4.85;;;31.90;79.60;;;;;;5111184;28;20232;-59
2023/06/16 09:36:48;;;;;;;10.52;5.07;;;32.20;85.80;;;;;;5111659;28;20283;-59
2023/06/16 09:39:26;;;;;;;4.70;4.40;;;32.80;77.90;;;;;;5104908;28;20203;-58
2023/06/16 09:41:54;;;;;;;3.78;3.67;;;32.80;79.70;;;;;;5099245;28;20274;-59
2023/06/16 09:44:23;;;;;;;4.10;4.00;;;32.70;81.70;;;;;;5091328;28;20219;-58
2023/06/16 09:46:51;;;;;;;3.97;3.78;;;31.50;72.10;;;;;;5095353;28;20276;-58
2023/06/16 09:49:22;;;;;;;4.30;4.10;;;31.50;72.50;;;;;;5112478;28;20260;-58
2023/06/16 09:51:53;;;;;;;4.20;4.10;;;31.10;79.40;;;;;;5115043;28;20207;-59
2023/06/16 09:54:21;;;;;;;4.28;4.07;;;31.40;78.80;;;;;;5105694;28;20692;-58
2023/06/16 09:56:50;;;;;;;4.53;4.43;;;31.60;84.60;;;;;;5101219;28;20284;-59
2023/06/16 09:59:17;;;;;;;4.70;4.50;;;31.20;79.40;;;;;;5107891;28;20204;-58
2023/06/16 10:01:47;;;;;;;3.90;3.70;;;31.20;78.90;;;;;;5094960;28;20236;-58
2023/06/16 10:04:16;;;;;;;4.03;3.78;;;31.30;82.80;;;;;;5094589;28;20266;-59
2023/06/16 10:06:53;;;;;;;4.43;4.32;;;31.40;82.10;;;;;;5112662;28;20202;-59
2023/06/16 10:09:27;;;;;;;4.38;4.07;;;31.20;78.10;;;;;;5103242;28;20204;-58
2023/06/16 10:11:56;;;;;;;4.18;3.85;;;30.90;77.40;;;;;;5094903;28;20205;-58
2023/06/16 10:14:26;;;;;;;4.10;4.00;;;31.10;77.20;;;;;;5094534;28;20309;-57
2023/06/16 10:16:57;;;;;;;4.75;4.50;;;31.10;79.40;;;;;;5094774;28;20236;-58
2023/06/16 10:19:25;;;;;;;4.68;4.32;;;31.40;73.40;;;;;;5094481;28;20235;-59
2023/06/16 10:21:53;;;;;;;3.88;3.78;;;31.90;71.70;;;;;;5099014;28;20200;-59
2023/06/16 10:24:21;;;;;;;4.85;4.70;;;31.70;69.60;;;;;;5106024;28;20264;-59
2023/06/16 10:26:50;;;;;;;4.47;4.30;;;31.40;69.20;;;;;;5097085;28;20197;-59
2023/06/16 10:29:20;;;;;;;4.95;4.75;;;31.70;71.50;;;;;;5094325;28;20559;-59
2023/06/16 10:31:49;;;;;;;5.10;4.88;;;31.70;70.60;;;;;;5093945;28;20230;-58
2023/06/16 10:34:20;;;;;;;4.88;4.57;;;31.60;77.00;;;;;;5093958;28;20239;-59
2023/06/16 10:36:51;;;;;;;4.40;4.30;;;31.70;75.00;;;;;;5094338;28;20236;-59
2023/06/16 10:39:19;;;;;;;5.78;5.22;;;31.60;70.00;;;;;;5101634;28;20621;-58
2023/06/16 10:41:51;;;;;;;3.78;3.67;;;31.30;69.40;;;;;;5102385;28;20192;-58
2023/06/16 10:44:27;;;;;;;4.60;4.30;;;31.10;70.00;;;;;;5094074;28;20221;-58
2023/06/16 10:47:28;;;;;;;4.68;4.47;;;31.10;67.10;;;;;;5094326;28;20292;-58
2023/06/16 10:49:57;;;;;;;4.43;4.32;;;30.80;65.70;;;;;;5094011;28;20207;-59
2023/06/16 10:52:49;;;;;;;4.30;4.10;;;30.20;68.30;;;;;;5093602;28;20197;-58
2023/06/16 10:55:25;;;;;;;4.82;4.68;;;29.60;70.70;;;;;;5099592;28;20296;-58
2023/06/16 10:57:58;;;;;;;4.60;4.35;;;29.00;72.20;;;;;;5108634;28;20199;-59
2023/06/16 11:00:27;;;;;;;4.53;4.32;;;29.00;76.90;;;;;;5111342;28;20196;-58
2023/06/16 11:02:59;;;;;;;4.18;4.07;;;28.30;80.50;;;;;;5109002;28;20208;-58
2023/06/16 11:05:37;;;;;;;4.38;4.18;;;28.30;77.50;;;;;;5093687;28;20297;-58
2023/06/16 11:08:15;;;;;;;4.55;4.25;;;28.50;81.10;;;;;;5093644;28;20240;-58
2023/06/16 11:10:49;;;;;;;4.25;3.90;;;28.20;77.70;;;;;;5095892;28;20579;-58
2023/06/16 11:13:18;;;;;;;5.22;4.50;;;28.50;74.60;;;;;;5100161;28;20203;-58
2023/06/16 11:15:46;;;;;;;4.30;3.97;;;28.40;77.80;;;;;;5101945;28;20269;-58
2023/06/16 11:18:13;;;;;;;3.85;3.72;;;28.00;77.70;;;;;;5093405;28;20228;-58
2023/06/16 11:20:41;;;;;;;3.42;3.33;;;28.10;82.30;;;;;;5093312;28;20311;-57
2023/06/16 11:23:08;;;;;;;3.72;3.42;;;28.60;76.50;;;;;;5093291;28;20208;-57
2023/06/16 11:25:37;;;;;;;3.55;3.38;;;28.50;73.90;;;;;;5093247;28;20224;-58
2023/06/16 11:28:05;;;;;;;3.47;3.28;;;28.80;74.10;;;;;;5103299;28;20204;-58
2023/06/16 11:30:35;;;;;;;4.43;4.18;;;28.10;73.30;;;;;;5102017;28;20201;-58
2023/06/16 11:33:04;;;;;;;3.92;3.67;;;28.00;74.40;;;;;;5093385;28;20196;-58
2023/06/16 11:35:31;;;;;;;4.28;4.00;;;27.60;75.50;;;;;;5112213;28;20216;-58
2023/06/16 11:37:58;;;;;;;4.68;4.07;;;27.60;78.60;;;;;;5105046;28;20210;-58
2023/06/16 11:40:27;;;;;;;3.58;3.47;;;27.20;75.30;;;;;;5104719;28;20192;-57
2023/06/16 11:42:56;;;;;;;4.35;3.95;;;27.20;78.30;;;;;;5107762;28;20204;-58
2023/06/16 11:45:24;;;;;;;4.28;4.03;;;27.20;75.20;;;;;;5101142;28;20223;-58
2023/06/16 11:47:51;;;;;;;4.45;4.15;;;27.40;72.40;;;;;;5103464;28;20687;-58
2023/06/16 11:50:20;;;;;;;4.15;3.95;;;27.30;73.30;;;;;;5092798;28;20236;-58
2023/06/16 11:52:47;;;;;;;4.45;4.05;;;27.40;77.60;;;;;;5092467;28;20254;-58
2023/06/16 11:55:14;;;;;;;4.40;4.17;;;27.30;73.50;;;;;;5094108;28;20713;-57
2023/06/16 11:57:41;;;;;;;4.65;4.35;;;27.00;77.00;;;;;;5111862;28;20204;-57
2023/06/16 12:00:10;;;;;;;4.25;4.05;;;27.00;77.10;;;;;;5100303;28;20200;-57
2023/06/16 12:02:38;;;;;;;4.77;4.47;;;26.60;78.10;;;;;;5092307;28;20196;-57
2023/06/16 12:05:10;;;;;;;4.77;4.57;;;26.20;80.10;;;;;;5092068;28;20274;-58
2023/06/16 12:07:39;;;;;;;5.67;4.17;;;26.20;79.00;;;;;;5104320;28;20203;-57
2023/06/16 12:10:07;;;;;;;8.93;5.03;;;26.40;82.70;;;;;;5112706;28;20202;-58
2023/06/16 12:12:34;;;;;;;4.20;3.80;;;26.40;80.70;;;;;;5110353;28;20200;-58
2023/06/16 12:15:03;;;;;;;4.60;4.40;;;26.70;80.80;;;;;;5109410;28;20705;-57
2023/06/16 12:17:33;;;;;;;4.93;4.57;;;26.80;79.60;;;;;;5105329;28;20273;-58
2023/06/16 12:20:03;;;;;;;4.53;4.30;;;26.80;82.50;;;;;;5110340;28;20253;-58
2023/06/16 12:22:35;;;;;;;6.90;4.63;;;26.70;81.60;;;;;;5102977;28;20204;-58
2023/06/16 12:25:03;;;;;;;5.13;4.73;;;26.40;82.00;;;;;;5103869;28;20216;-58
2023/06/16 12:27:33;;;;;;;5.07;4.73;;;26.20;81.80;;;;;;5110388;28;20200;-58
2023/06/16 12:30:02;;;;;;;5.00;4.77;;;26.10;84.60;;;;;;5101363;28;20758;-58
2023/06/16 12:32:31;;;;;;;5.80;5.50;;;26.10;85.60;;;;;;5091771;28;20303;-58
2023/06/16 12:34:58;;;;;;;4.67;4.30;;;26.30;89.10;;;;;;5092003;28;20229;-57
2023/06/16 12:37:27;;;;;;;4.43;4.23;;;26.30;81.50;;;;;;5103237;28;20192;-58
2023/06/16 12:39:58;;;;;;;5.23;4.93;;;26.20;81.30;;;;;;5110499;28;20231;-57
2023/06/16 12:42:29;;;;;;;4.50;4.13;;;26.20;79.10;;;;;;5112118;28;20225;-58
2023/06/16 12:44:59;;;;;;;5.83;4.97;;;26.20;84.00;;;;;;5108796;28;20228;-58
2023/06/16 12:47:27;;;;;;;4.47;4.07;;;26.20;80.50;;;;;;5095138;28;20230;-58
2023/06/16 12:49:55;;;;;;;4.80;4.57;;;26.10;79.90;;;;;;5091455;28;20575;-58
2023/06/16 12:52:23;;;;;;;5.13;4.70;;;26.00;75.90;;;;;;5101685;28;20196;-58
2023/06/16 12:54:51;;;;;;;5.40;4.97;;;25.70;78.00;;;;;;5101884;28;20280;-57